sensor_id;sensor_type;location;lat;lon;timestamp;P1;durP1;ratioP1;P2;durP2;ratioP2
55706;SDS011;41608;45.384;20.394;2022-08-11T00:02:14;5.45;;;2.95;;
55706;SDS011;41608;45.384;20.394;2022-08-11T00:04:41;9.27;;;3.25;;
55706;SDS011;41608;45.384;20.394;2022-08-11T00:07:08;6.45;;;2.80;;
55706;SDS011;41608;45.384;20.394;2022-08-11T00:09:35;5.85;;;2.70;;
55706;SDS011;41608;45.384;20.394;2022-08-11T00:12:04;2.58;;;2.20;;
55706;SDS011;41608;45.384;20.394;2022-08-11T00:14:37;4.75;;;2.53;;
55706;SDS011;41608;45.384;20.394;2022-08-11T00:17:08;13.82;;;2.88;;
55706;SDS011;41608;45.384;20.394;2022-08-11T00:19:45;3.72;;;2.40;;
55706;SDS011;41608;45.384;20.394;2022-08-11T00:22:11;6.25;;;3.05;;
55706;SDS011;41608;45.384;20.394;2022-08-11T00:24:45;10.40;;;2.63;;
55706;SDS011;41608;45.384;20.394;2022-08-11T00:27:11;6.40;;;3.08;;
55706;SDS011;41608;45.384;20.394;2022-08-11T00:29:39;4.43;;;2.28;;
55706;SDS011;41608;45.384;20.394;2022-08-11T00:32:05;2.92;;;1.77;;
55706;SDS011;41608;45.384;20.394;2022-08-11T00:34:37;7.15;;;2.70;;
55706;SDS011;41608;45.384;20.394;2022-08-11T00:37:06;4.85;;;2.40;;
55706;SDS011;41608;45.384;20.394;2022-08-11T00:39:42;6.47;;;2.75;;
55706;SDS011;41608;45.384;20.394;2022-08-11T00:50:40;6.57;;;2.50;;
55706;SDS011;41608;45.384;20.394;2022-08-11T01:19:39;5.63;;;2.63;;
55706;SDS011;41608;45.384;20.394;2022-08-11T01:22:27;13.70;;;3.90;;
55706;SDS011;41608;45.384;20.394;2022-08-11T01:25:09;9.13;;;2.88;;
55706;SDS011;41608;45.384;20.394;2022-08-11T01:46:00;4.10;;;2.58;;
55706;SDS011;41608;45.384;20.394;2022-08-11T01:54:11;5.28;;;3.25;;
55706;SDS011;41608;45.384;20.394;2022-08-11T02:01:40;6.10;;;3.13;;
55706;SDS011;41608;45.384;20.394;2022-08-11T02:06:47;7.28;;;3.20;;
55706;SDS011;41608;45.384;20.394;2022-08-11T02:12:02;4.38;;;2.83;;
55706;SDS011;41608;45.384;20.394;2022-08-11T02:14:48;4.47;;;2.47;;
55706;SDS011;41608;45.384;20.394;2022-08-11T02:17:20;4.50;;;2.95;;
55706;SDS011;41608;45.384;20.394;2022-08-11T02:22:48;9.10;;;2.80;;
55706;SDS011;41608;45.384;20.394;2022-08-11T02:33:43;4.32;;;2.20;;
55706;SDS011;41608;45.384;20.394;2022-08-11T02:36:55;3.85;;;2.58;;
55706;SDS011;41608;45.384;20.394;2022-08-11T02:39:03;6.38;;;3.25;;
55706;SDS011;41608;45.384;20.394;2022-08-11T02:41:51;7.78;;;3.45;;
55706;SDS011;41608;45.384;20.394;2022-08-11T02:47:16;7.18;;;2.53;;
55706;SDS011;41608;45.384;20.394;2022-08-11T02:58:02;6.38;;;3.05;;
55706;SDS011;41608;45.384;20.394;2022-08-11T03:00:42;11.00;;;3.72;;
55706;SDS011;41608;45.384;20.394;2022-08-11T03:03:12;5.03;;;3.30;;
55706;SDS011;41608;45.384;20.394;2022-08-11T03:06:01;6.63;;;4.70;;
55706;SDS011;41608;45.384;20.394;2022-08-11T03:14:24;8.73;;;3.28;;
55706;SDS011;41608;45.384;20.394;2022-08-11T03:22:19;6.03;;;2.70;;
55706;SDS011;41608;45.384;20.394;2022-08-11T03:25:07;5.93;;;3.10;;
55706;SDS011;41608;45.384;20.394;2022-08-11T03:30:34;7.78;;;2.85;;
55706;SDS011;41608;45.384;20.394;2022-08-11T03:33:07;10.73;;;2.40;;
55706;SDS011;41608;45.384;20.394;2022-08-11T03:38:24;3.78;;;1.92;;
55706;SDS011;41608;45.384;20.394;2022-08-11T03:41:06;2.72;;;1.85;;
55706;SDS011;41608;45.384;20.394;2022-08-11T03:44:19;5.00;;;2.83;;
55706;SDS011;41608;45.384;20.394;2022-08-11T03:49:38;6.28;;;3.70;;
55706;SDS011;41608;45.384;20.394;2022-08-11T03:54:49;4.55;;;3.15;;
55706;SDS011;41608;45.384;20.394;2022-08-11T03:57:35;6.07;;;3.67;;
55706;SDS011;41608;45.384;20.394;2022-08-11T04:00:14;6.88;;;2.58;;
55706;SDS011;41608;45.384;20.394;2022-08-11T04:13:12;5.13;;;2.97;;
55706;SDS011;41608;45.384;20.394;2022-08-11T04:26:52;7.00;;;3.58;;
55706;SDS011;41608;45.384;20.394;2022-08-11T04:40:05;6.78;;;2.97;;
55706;SDS011;41608;45.384;20.394;2022-08-11T04:51:21;4.88;;;2.40;;
55706;SDS011;41608;45.384;20.394;2022-08-11T04:54:25;4.57;;;2.65;;
55706;SDS011;41608;45.384;20.394;2022-08-11T04:57:34;6.60;;;3.47;;
55706;SDS011;41608;45.384;20.394;2022-08-11T05:00:28;6.57;;;2.67;;
55706;SDS011;41608;45.384;20.394;2022-08-11T05:04:06;5.05;;;2.78;;
55706;SDS011;41608;45.384;20.394;2022-08-11T05:06:15;3.58;;;2.22;;
55706;SDS011;41608;45.384;20.394;2022-08-11T05:16:57;4.03;;;1.85;;
55706;SDS011;41608;45.384;20.394;2022-08-11T05:19:45;11.95;;;3.00;;
55706;SDS011;41608;45.384;20.394;2022-08-11T05:22:34;3.90;;;2.47;;
55706;SDS011;41608;45.384;20.394;2022-08-11T05:25:21;3.78;;;2.40;;
55706;SDS011;41608;45.384;20.394;2022-08-11T05:28:15;5.28;;;3.10;;
55706;SDS011;41608;45.384;20.394;2022-08-11T05:31:09;4.82;;;2.53;;
55706;SDS011;41608;45.384;20.394;2022-08-11T05:34:02;15.35;;;3.63;;
55706;SDS011;41608;45.384;20.394;2022-08-11T05:36:52;4.88;;;2.70;;
55706;SDS011;41608;45.384;20.394;2022-08-11T05:39:23;7.85;;;3.00;;
55706;SDS011;41608;45.384;20.394;2022-08-11T05:42:08;5.20;;;2.85;;
55706;SDS011;41608;45.384;20.394;2022-08-11T05:44:54;11.25;;;3.22;;
55706;SDS011;41608;45.384;20.394;2022-08-11T05:47:40;4.00;;;2.42;;
55706;SDS011;41608;45.384;20.394;2022-08-11T05:50:26;4.00;;;2.70;;
55706;SDS011;41608;45.384;20.394;2022-08-11T05:53:12;4.13;;;2.90;;
55706;SDS011;41608;45.384;20.394;2022-08-11T05:55:57;4.35;;;2.90;;
55706;SDS011;41608;45.384;20.394;2022-08-11T05:58:53;4.68;;;2.72;;
55706;SDS011;41608;45.384;20.394;2022-08-11T06:03:48;7.57;;;2.83;;
55706;SDS011;41608;45.384;20.394;2022-08-11T06:06:33;8.98;;;3.60;;
55706;SDS011;41608;45.384;20.394;2022-08-11T06:09:01;4.47;;;2.30;;
55706;SDS011;41608;45.384;20.394;2022-08-11T06:11:27;4.00;;;2.75;;
55706;SDS011;41608;45.384;20.394;2022-08-11T06:13:55;7.85;;;2.60;;
55706;SDS011;41608;45.384;20.394;2022-08-11T06:16:22;4.72;;;2.80;;
55706;SDS011;41608;45.384;20.394;2022-08-11T06:18:49;3.08;;;2.20;;
55706;SDS011;41608;45.384;20.394;2022-08-11T06:21:16;6.05;;;2.58;;
55706;SDS011;41608;45.384;20.394;2022-08-11T06:23:43;10.68;;;2.40;;
55706;SDS011;41608;45.384;20.394;2022-08-11T06:26:10;3.10;;;2.35;;
55706;SDS011;41608;45.384;20.394;2022-08-11T06:28:37;4.20;;;2.45;;
55706;SDS011;41608;45.384;20.394;2022-08-11T06:31:14;3.47;;;1.92;;
55706;SDS011;41608;45.384;20.394;2022-08-11T06:33:55;5.60;;;3.17;;
55706;SDS011;41608;45.384;20.394;2022-08-11T06:36:42;6.47;;;3.08;;
55706;SDS011;41608;45.384;20.394;2022-08-11T06:41:47;3.83;;;2.17;;
55706;SDS011;41608;45.384;20.394;2022-08-11T06:46:47;3.83;;;2.35;;
55706;SDS011;41608;45.384;20.394;2022-08-11T06:49:15;3.95;;;2.15;;
55706;SDS011;41608;45.384;20.394;2022-08-11T06:52:01;3.72;;;2.33;;
55706;SDS011;41608;45.384;20.394;2022-08-11T06:54:32;4.85;;;2.25;;
55706;SDS011;41608;45.384;20.394;2022-08-11T06:56:59;5.65;;;2.83;;
55706;SDS011;41608;45.384;20.394;2022-08-11T06:59:46;5.28;;;2.80;;
55706;SDS011;41608;45.384;20.394;2022-08-11T07:02:50;4.47;;;2.83;;
55706;SDS011;41608;45.384;20.394;2022-08-11T07:05:21;4.43;;;2.50;;
55706;SDS011;41608;45.384;20.394;2022-08-11T07:08:12;4.88;;;2.63;;
55706;SDS011;41608;45.384;20.394;2022-08-11T07:13:57;4.00;;;1.70;;
55706;SDS011;41608;45.384;20.394;2022-08-11T07:16:43;4.03;;;2.15;;
55706;SDS011;41608;45.384;20.394;2022-08-11T07:19:09;4.25;;;2.97;;
55706;SDS011;41608;45.384;20.394;2022-08-11T07:21:55;6.18;;;2.45;;
55706;SDS011;41608;45.384;20.394;2022-08-11T07:28:02;3.78;;;2.30;;
55706;SDS011;41608;45.384;20.394;2022-08-11T07:30:47;5.60;;;2.45;;
55706;SDS011;41608;45.384;20.394;2022-08-11T07:33:22;8.90;;;4.10;;
55706;SDS011;41608;45.384;20.394;2022-08-11T07:35:51;3.72;;;2.08;;
55706;SDS011;41608;45.384;20.394;2022-08-11T07:38:24;2.97;;;2.40;;
55706;SDS011;41608;45.384;20.394;2022-08-11T07:41:14;3.35;;;2.20;;
55706;SDS011;41608;45.384;20.394;2022-08-11T07:43:41;3.05;;;2.08;;
55706;SDS011;41608;45.384;20.394;2022-08-11T07:46:08;2.80;;;1.55;;
55706;SDS011;41608;45.384;20.394;2022-08-11T07:48:53;5.20;;;1.93;;
55706;SDS011;41608;45.384;20.394;2022-08-11T07:51:38;2.35;;;1.70;;
55706;SDS011;41608;45.384;20.394;2022-08-11T07:54:23;1.20;;;1.08;;
55706;SDS011;41608;45.384;20.394;2022-08-11T07:56:50;2.55;;;1.60;;
55706;SDS011;41608;45.384;20.394;2022-08-11T07:59:17;8.27;;;3.05;;
55706;SDS011;41608;45.384;20.394;2022-08-11T08:02:02;4.72;;;2.40;;
55706;SDS011;41608;45.384;20.394;2022-08-11T08:04:47;3.10;;;1.95;;
55706;SDS011;41608;45.384;20.394;2022-08-11T08:07:32;6.03;;;2.22;;
55706;SDS011;41608;45.384;20.394;2022-08-11T08:10:17;2.28;;;1.52;;
55706;SDS011;41608;45.384;20.394;2022-08-11T08:13:03;4.10;;;2.70;;
55706;SDS011;41608;45.384;20.394;2022-08-11T08:15:48;4.75;;;2.25;;
55706;SDS011;41608;45.384;20.394;2022-08-11T08:18:33;3.95;;;1.92;;
55706;SDS011;41608;45.384;20.394;2022-08-11T08:21:02;2.47;;;1.95;;
55706;SDS011;41608;45.384;20.394;2022-08-11T08:23:36;4.35;;;2.03;;
55706;SDS011;41608;45.384;20.394;2022-08-11T08:26:04;2.45;;;1.85;;
55706;SDS011;41608;45.384;20.394;2022-08-11T08:28:51;3.45;;;2.30;;
55706;SDS011;41608;45.384;20.394;2022-08-11T08:31:17;3.97;;;1.98;;
55706;SDS011;41608;45.384;20.394;2022-08-11T08:33:46;4.57;;;2.38;;
55706;SDS011;41608;45.384;20.394;2022-08-11T08:36:12;3.53;;;2.00;;
55706;SDS011;41608;45.384;20.394;2022-08-11T08:38:49;3.60;;;2.10;;
55706;SDS011;41608;45.384;20.394;2022-08-11T08:53:47;8.02;;;3.30;;
55706;SDS011;41608;45.384;20.394;2022-08-11T08:56:14;3.40;;;2.60;;
55706;SDS011;41608;45.384;20.394;2022-08-11T08:58:45;4.47;;;3.05;;
55706;SDS011;41608;45.384;20.394;2022-08-11T09:01:13;3.53;;;2.20;;
55706;SDS011;41608;45.384;20.394;2022-08-11T09:03:39;3.88;;;2.28;;
55706;SDS011;41608;45.384;20.394;2022-08-11T09:06:06;4.00;;;1.67;;
55706;SDS011;41608;45.384;20.394;2022-08-11T09:08:33;5.20;;;2.30;;
55706;SDS011;41608;45.384;20.394;2022-08-11T09:10:59;5.63;;;2.80;;
55706;SDS011;41608;45.384;20.394;2022-08-11T09:16:11;4.00;;;1.85;;
55706;SDS011;41608;45.384;20.394;2022-08-11T09:18:38;3.92;;;2.58;;
55706;SDS011;41608;45.384;20.394;2022-08-11T09:21:04;8.07;;;3.42;;
55706;SDS011;41608;45.384;20.394;2022-08-11T09:23:31;3.70;;;2.45;;
55706;SDS011;41608;45.384;20.394;2022-08-11T09:26:16;5.15;;;2.25;;
55706;SDS011;41608;45.384;20.394;2022-08-11T09:29:02;5.60;;;2.55;;
55706;SDS011;41608;45.384;20.394;2022-08-11T09:31:31;3.10;;;2.45;;
55706;SDS011;41608;45.384;20.394;2022-08-11T09:33:58;3.45;;;2.40;;
55706;SDS011;41608;45.384;20.394;2022-08-11T09:36:24;4.80;;;2.35;;
55706;SDS011;41608;45.384;20.394;2022-08-11T09:39:09;3.13;;;2.30;;
55706;SDS011;41608;45.384;20.394;2022-08-11T09:41:54;2.67;;;1.95;;
55706;SDS011;41608;45.384;20.394;2022-08-11T09:44:20;5.75;;;2.50;;
55706;SDS011;41608;45.384;20.394;2022-08-11T09:47:06;5.57;;;2.50;;
55706;SDS011;41608;45.384;20.394;2022-08-11T09:49:37;3.65;;;2.53;;
55706;SDS011;41608;45.384;20.394;2022-08-11T09:52:03;3.70;;;2.20;;
55706;SDS011;41608;45.384;20.394;2022-08-11T09:54:33;3.75;;;2.20;;
55706;SDS011;41608;45.384;20.394;2022-08-11T09:56:59;4.28;;;1.80;;
55706;SDS011;41608;45.384;20.394;2022-08-11T09:59:44;4.35;;;2.08;;
55706;SDS011;41608;45.384;20.394;2022-08-11T10:02:10;3.35;;;2.22;;
55706;SDS011;41608;45.384;20.394;2022-08-11T10:04:39;5.03;;;2.05;;
55706;SDS011;41608;45.384;20.394;2022-08-11T10:07:05;4.68;;;2.67;;
55706;SDS011;41608;45.384;20.394;2022-08-11T10:09:38;3.20;;;2.45;;
55706;SDS011;41608;45.384;20.394;2022-08-11T10:12:09;4.45;;;2.13;;
55706;SDS011;41608;45.384;20.394;2022-08-11T10:14:39;2.60;;;2.17;;
55706;SDS011;41608;45.384;20.394;2022-08-11T10:17:25;5.63;;;1.70;;
55706;SDS011;41608;45.384;20.394;2022-08-11T10:19:51;2.17;;;1.67;;
55706;SDS011;41608;45.384;20.394;2022-08-11T10:22:22;4.35;;;2.80;;
55706;SDS011;41608;45.384;20.394;2022-08-11T10:25:07;5.90;;;2.63;;
55706;SDS011;41608;45.384;20.394;2022-08-11T10:27:52;7.40;;;2.33;;
55706;SDS011;41608;45.384;20.394;2022-08-11T10:30:23;3.25;;;1.85;;
55706;SDS011;41608;45.384;20.394;2022-08-11T10:33:09;3.78;;;1.70;;
55706;SDS011;41608;45.384;20.394;2022-08-11T10:35:56;2.50;;;1.70;;
55706;SDS011;41608;45.384;20.394;2022-08-11T10:38:22;3.60;;;1.90;;
55706;SDS011;41608;45.384;20.394;2022-08-11T10:40:48;3.55;;;2.17;;
55706;SDS011;41608;45.384;20.394;2022-08-11T10:43:35;6.75;;;1.70;;
55706;SDS011;41608;45.384;20.394;2022-08-11T10:46:03;2.60;;;1.60;;
55706;SDS011;41608;45.384;20.394;2022-08-11T10:48:49;2.90;;;1.67;;
55706;SDS011;41608;45.384;20.394;2022-08-11T10:51:15;5.78;;;1.95;;
55706;SDS011;41608;45.384;20.394;2022-08-11T10:53:51;3.10;;;1.83;;
55706;SDS011;41608;45.384;20.394;2022-08-11T10:56:36;4.50;;;1.55;;
55706;SDS011;41608;45.384;20.394;2022-08-11T10:59:23;3.22;;;1.67;;
55706;SDS011;41608;45.384;20.394;2022-08-11T11:01:49;4.20;;;2.58;;
55706;SDS011;41608;45.384;20.394;2022-08-11T11:04:17;5.07;;;1.80;;
55706;SDS011;41608;45.384;20.394;2022-08-11T11:11:52;4.57;;;2.75;;
55706;SDS011;41608;45.384;20.394;2022-08-11T11:14:37;3.10;;;1.10;;
55706;SDS011;41608;45.384;20.394;2022-08-11T11:17:26;3.22;;;1.40;;
55706;SDS011;41608;45.384;20.394;2022-08-11T11:20:11;3.85;;;1.50;;
55706;SDS011;41608;45.384;20.394;2022-08-11T11:22:39;2.55;;;1.50;;
55706;SDS011;41608;45.384;20.394;2022-08-11T11:30:06;2.53;;;1.60;;
55706;SDS011;41608;45.384;20.394;2022-08-11T11:32:39;4.88;;;2.45;;
55706;SDS011;41608;45.384;20.394;2022-08-11T11:37:33;1.73;;;1.50;;
55706;SDS011;41608;45.384;20.394;2022-08-11T11:39:59;2.22;;;1.65;;
55706;SDS011;41608;45.384;20.394;2022-08-11T11:42:26;2.30;;;1.65;;
55706;SDS011;41608;45.384;20.394;2022-08-11T11:44:53;2.08;;;1.60;;
55706;SDS011;41608;45.384;20.394;2022-08-11T11:47:19;4.05;;;1.80;;
55706;SDS011;41608;45.384;20.394;2022-08-11T11:49:47;2.85;;;1.85;;
55706;SDS011;41608;45.384;20.394;2022-08-11T11:52:14;3.63;;;1.70;;
55706;SDS011;41608;45.384;20.394;2022-08-11T11:54:43;2.17;;;1.02;;
55706;SDS011;41608;45.384;20.394;2022-08-11T11:57:10;2.90;;;1.45;;
55706;SDS011;41608;45.384;20.394;2022-08-11T11:59:55;3.17;;;1.63;;
55706;SDS011;41608;45.384;20.394;2022-08-11T12:02:40;1.10;;;1.00;;
55706;SDS011;41608;45.384;20.394;2022-08-11T12:05:08;3.70;;;1.40;;
55706;SDS011;41608;45.384;20.394;2022-08-11T12:07:38;3.08;;;1.65;;
55706;SDS011;41608;45.384;20.394;2022-08-11T12:10:24;3.53;;;1.40;;
55706;SDS011;41608;45.384;20.394;2022-08-11T12:12:50;4.35;;;1.48;;
55706;SDS011;41608;45.384;20.394;2022-08-11T12:15:35;2.08;;;1.45;;
55706;SDS011;41608;45.384;20.394;2022-08-11T12:18:01;4.15;;;1.70;;
55706;SDS011;41608;45.384;20.394;2022-08-11T12:20:28;4.72;;;1.35;;
55706;SDS011;41608;45.384;20.394;2022-08-11T12:22:55;1.95;;;1.10;;
55706;SDS011;41608;45.384;20.394;2022-08-11T12:28:25;1.88;;;1.50;;
55706;SDS011;41608;45.384;20.394;2022-08-11T12:30:51;2.38;;;1.23;;
55706;SDS011;41608;45.384;20.394;2022-08-11T12:33:18;4.05;;;1.60;;
55706;SDS011;41608;45.384;20.394;2022-08-11T12:35:45;2.03;;;1.45;;
55706;SDS011;41608;45.384;20.394;2022-08-11T12:38:11;2.38;;;1.10;;
55706;SDS011;41608;45.384;20.394;2022-08-11T12:40:39;2.17;;;1.15;;
55706;SDS011;41608;45.384;20.394;2022-08-11T12:43:26;3.83;;;1.42;;
55706;SDS011;41608;45.384;20.394;2022-08-11T12:46:13;2.22;;;1.38;;
55706;SDS011;41608;45.384;20.394;2022-08-11T12:48:43;2.13;;;1.35;;
55706;SDS011;41608;45.384;20.394;2022-08-11T12:51:35;3.35;;;1.38;;
55706;SDS011;41608;45.384;20.394;2022-08-11T12:54:25;3.63;;;1.33;;
55706;SDS011;41608;45.384;20.394;2022-08-11T12:56:57;2.35;;;1.30;;
55706;SDS011;41608;45.384;20.394;2022-08-11T12:59:42;4.85;;;1.40;;
55706;SDS011;41608;45.384;20.394;2022-08-11T13:02:26;0.97;;;0.90;;
55706;SDS011;41608;45.384;20.394;2022-08-11T13:05:12;2.35;;;1.50;;
55706;SDS011;41608;45.384;20.394;2022-08-11T13:07:40;2.95;;;1.20;;
55706;SDS011;41608;45.384;20.394;2022-08-11T13:10:07;4.13;;;1.80;;
55706;SDS011;41608;45.384;20.394;2022-08-11T13:12:34;2.20;;;1.40;;
55706;SDS011;41608;45.384;20.394;2022-08-11T13:15:14;2.15;;;1.42;;
55706;SDS011;41608;45.384;20.394;2022-08-11T13:17:41;1.95;;;1.02;;
55706;SDS011;41608;45.384;20.394;2022-08-11T13:20:08;1.80;;;1.25;;
55706;SDS011;41608;45.384;20.394;2022-08-11T13:22:34;3.25;;;1.38;;
55706;SDS011;41608;45.384;20.394;2022-08-11T13:25:01;5.70;;;1.30;;
55706;SDS011;41608;45.384;20.394;2022-08-11T13:27:29;2.78;;;1.10;;
55706;SDS011;41608;45.384;20.394;2022-08-11T13:29:55;2.38;;;1.52;;
55706;SDS011;41608;45.384;20.394;2022-08-11T13:32:41;5.80;;;1.58;;
55706;SDS011;41608;45.384;20.394;2022-08-11T13:35:09;3.65;;;1.42;;
55706;SDS011;41608;45.384;20.394;2022-08-11T13:37:37;3.38;;;1.48;;
55706;SDS011;41608;45.384;20.394;2022-08-11T13:40:03;4.68;;;1.25;;
55706;SDS011;41608;45.384;20.394;2022-08-11T13:42:30;2.97;;;1.40;;
55706;SDS011;41608;45.384;20.394;2022-08-11T13:44:57;2.30;;;1.58;;
55706;SDS011;41608;45.384;20.394;2022-08-11T13:47:23;2.05;;;1.40;;
55706;SDS011;41608;45.384;20.394;2022-08-11T13:49:50;2.88;;;1.30;;
55706;SDS011;41608;45.384;20.394;2022-08-11T13:52:17;3.72;;;1.33;;
55706;SDS011;41608;45.384;20.394;2022-08-11T13:54:45;3.05;;;1.08;;
55706;SDS011;41608;45.384;20.394;2022-08-11T13:57:12;6.78;;;1.77;;
55706;SDS011;41608;45.384;20.394;2022-08-11T13:59:40;3.78;;;1.50;;
55706;SDS011;41608;45.384;20.394;2022-08-11T14:02:16;5.43;;;1.17;;
55706;SDS011;41608;45.384;20.394;2022-08-11T14:07:16;3.50;;;1.75;;
55706;SDS011;41608;45.384;20.394;2022-08-11T14:09:43;2.58;;;1.50;;
55706;SDS011;41608;45.384;20.394;2022-08-11T14:12:21;4.20;;;1.48;;
55706;SDS011;41608;45.384;20.394;2022-08-11T14:15:17;3.90;;;1.50;;
55706;SDS011;41608;45.384;20.394;2022-08-11T14:17:44;2.17;;;1.20;;
55706;SDS011;41608;45.384;20.394;2022-08-11T14:20:14;3.97;;;1.20;;
55706;SDS011;41608;45.384;20.394;2022-08-11T14:22:41;2.97;;;1.75;;
55706;SDS011;41608;45.384;20.394;2022-08-11T14:25:08;4.20;;;1.48;;
55706;SDS011;41608;45.384;20.394;2022-08-11T14:27:36;3.22;;;1.27;;
55706;SDS011;41608;45.384;20.394;2022-08-11T14:30:02;2.58;;;1.20;;
55706;SDS011;41608;45.384;20.394;2022-08-11T14:32:29;3.47;;;1.40;;
55706;SDS011;41608;45.384;20.394;2022-08-11T14:34:55;1.75;;;1.20;;
55706;SDS011;41608;45.384;20.394;2022-08-11T14:37:22;1.50;;;0.90;;
55706;SDS011;41608;45.384;20.394;2022-08-11T14:39:50;1.88;;;1.10;;
55706;SDS011;41608;45.384;20.394;2022-08-11T14:42:18;3.45;;;1.33;;
55706;SDS011;41608;45.384;20.394;2022-08-11T14:45:05;2.63;;;1.00;;
55706;SDS011;41608;45.384;20.394;2022-08-11T14:47:50;3.63;;;1.65;;
55706;SDS011;41608;45.384;20.394;2022-08-11T14:50:20;1.45;;;0.93;;
55706;SDS011;41608;45.384;20.394;2022-08-11T14:52:51;2.60;;;1.58;;
55706;SDS011;41608;45.384;20.394;2022-08-11T14:55:19;2.35;;;1.15;;
55706;SDS011;41608;45.384;20.394;2022-08-11T14:58:04;3.05;;;1.55;;
55706;SDS011;41608;45.384;20.394;2022-08-11T15:00:31;4.30;;;1.55;;
55706;SDS011;41608;45.384;20.394;2022-08-11T15:02:58;3.33;;;1.23;;
55706;SDS011;41608;45.384;20.394;2022-08-11T15:05:34;1.65;;;1.10;;
55706;SDS011;41608;45.384;20.394;2022-08-11T15:08:00;3.38;;;1.40;;
55706;SDS011;41608;45.384;20.394;2022-08-11T15:10:27;1.38;;;1.05;;
55706;SDS011;41608;45.384;20.394;2022-08-11T15:12:53;1.70;;;1.15;;
55706;SDS011;41608;45.384;20.394;2022-08-11T15:15:19;2.60;;;1.15;;
55706;SDS011;41608;45.384;20.394;2022-08-11T15:18:05;2.58;;;1.30;;
55706;SDS011;41608;45.384;20.394;2022-08-11T15:20:32;4.05;;;1.30;;
55706;SDS011;41608;45.384;20.394;2022-08-11T15:23:17;3.00;;;1.20;;
55706;SDS011;41608;45.384;20.394;2022-08-11T15:26:07;3.10;;;1.45;;
55706;SDS011;41608;45.384;20.394;2022-08-11T15:28:36;2.90;;;1.08;;
55706;SDS011;41608;45.384;20.394;2022-08-11T15:31:23;3.42;;;1.40;;
55706;SDS011;41608;45.384;20.394;2022-08-11T15:34:10;2.80;;;1.30;;
55706;SDS011;41608;45.384;20.394;2022-08-11T15:37:02;4.85;;;1.60;;
55706;SDS011;41608;45.384;20.394;2022-08-11T15:39:48;2.65;;;1.60;;
55706;SDS011;41608;45.384;20.394;2022-08-11T15:42:33;2.78;;;1.10;;
55706;SDS011;41608;45.384;20.394;2022-08-11T15:45:22;3.15;;;1.40;;
55706;SDS011;41608;45.384;20.394;2022-08-11T15:48:09;2.53;;;1.10;;
55706;SDS011;41608;45.384;20.394;2022-08-11T15:50:40;5.88;;;1.38;;
55706;SDS011;41608;45.384;20.394;2022-08-11T15:53:17;3.35;;;1.10;;
55706;SDS011;41608;45.384;20.394;2022-08-11T15:55:44;5.15;;;1.40;;
55706;SDS011;41608;45.384;20.394;2022-08-11T15:58:12;1.83;;;0.80;;
55706;SDS011;41608;45.384;20.394;2022-08-11T16:00:57;1.88;;;0.93;;
55706;SDS011;41608;45.384;20.394;2022-08-11T16:03:46;2.13;;;1.27;;
55706;SDS011;41608;45.384;20.394;2022-08-11T16:06:33;1.35;;;1.05;;
55706;SDS011;41608;45.384;20.394;2022-08-11T16:09:00;2.03;;;1.10;;
55706;SDS011;41608;45.384;20.394;2022-08-11T16:11:30;5.90;;;1.75;;
55706;SDS011;41608;45.384;20.394;2022-08-11T16:13:56;3.15;;;1.38;;
55706;SDS011;41608;45.384;20.394;2022-08-11T16:16:59;1.63;;;0.88;;
55706;SDS011;41608;45.384;20.394;2022-08-11T16:19:27;4.13;;;1.40;;
55706;SDS011;41608;45.384;20.394;2022-08-11T16:22:00;5.28;;;1.58;;
55706;SDS011;41608;45.384;20.394;2022-08-11T16:24:27;3.72;;;1.00;;
55706;SDS011;41608;45.384;20.394;2022-08-11T16:26:54;6.60;;;2.15;;
55706;SDS011;41608;45.384;20.394;2022-08-11T16:29:21;3.92;;;1.33;;
55706;SDS011;41608;45.384;20.394;2022-08-11T16:31:49;5.60;;;1.20;;
55706;SDS011;41608;45.384;20.394;2022-08-11T16:37:19;3.53;;;1.30;;
55706;SDS011;41608;45.384;20.394;2022-08-11T16:40:06;2.70;;;1.20;;
55706;SDS011;41608;45.384;20.394;2022-08-11T16:42:33;3.28;;;1.13;;
55706;SDS011;41608;45.384;20.394;2022-08-11T16:45:18;3.15;;;1.10;;
55706;SDS011;41608;45.384;20.394;2022-08-11T16:48:03;2.77;;;1.10;;
55706;SDS011;41608;45.384;20.394;2022-08-11T16:50:30;2.45;;;1.27;;
55706;SDS011;41608;45.384;20.394;2022-08-11T16:52:57;1.48;;;1.27;;
55706;SDS011;41608;45.384;20.394;2022-08-11T16:55:23;3.40;;;1.48;;
55706;SDS011;41608;45.384;20.394;2022-08-11T16:57:49;3.92;;;1.30;;
55706;SDS011;41608;45.384;20.394;2022-08-11T17:00:34;3.23;;;1.60;;
55706;SDS011;41608;45.384;20.394;2022-08-11T17:03:01;1.95;;;1.00;;
55706;SDS011;41608;45.384;20.394;2022-08-11T17:05:50;2.28;;;1.20;;
55706;SDS011;41608;45.384;20.394;2022-08-11T17:08:37;8.75;;;2.17;;
55706;SDS011;41608;45.384;20.394;2022-08-11T17:11:25;2.33;;;1.27;;
55706;SDS011;41608;45.384;20.394;2022-08-11T17:14:12;2.65;;;1.33;;
55706;SDS011;41608;45.384;20.394;2022-08-11T17:16:38;2.28;;;1.55;;
55706;SDS011;41608;45.384;20.394;2022-08-11T17:19:08;4.72;;;1.40;;
55706;SDS011;41608;45.384;20.394;2022-08-11T17:21:39;2.78;;;1.20;;
55706;SDS011;41608;45.384;20.394;2022-08-11T17:24:26;5.50;;;1.50;;
55706;SDS011;41608;45.384;20.394;2022-08-11T17:26:53;7.72;;;2.17;;
55706;SDS011;41608;45.384;20.394;2022-08-11T17:29:37;5.72;;;1.80;;
55706;SDS011;41608;45.384;20.394;2022-08-11T17:32:05;4.75;;;1.50;;
55706;SDS011;41608;45.384;20.394;2022-08-11T17:34:51;3.75;;;1.80;;
55706;SDS011;41608;45.384;20.394;2022-08-11T17:37:37;3.40;;;1.42;;
55706;SDS011;41608;45.384;20.394;2022-08-11T17:40:06;4.57;;;1.38;;
55706;SDS011;41608;45.384;20.394;2022-08-11T17:42:33;2.30;;;1.45;;
55706;SDS011;41608;45.384;20.394;2022-08-11T17:45:19;3.10;;;1.80;;
55706;SDS011;41608;45.384;20.394;2022-08-11T17:48:05;6.60;;;1.80;;
55706;SDS011;41608;45.384;20.394;2022-08-11T17:50:54;3.92;;;1.67;;
55706;SDS011;41608;45.384;20.394;2022-08-11T17:53:21;2.85;;;1.50;;
55706;SDS011;41608;45.384;20.394;2022-08-11T17:56:06;2.83;;;1.80;;
55706;SDS011;41608;45.384;20.394;2022-08-11T17:58:59;3.78;;;1.40;;
55706;SDS011;41608;45.384;20.394;2022-08-11T18:01:45;4.43;;;2.28;;
55706;SDS011;41608;45.384;20.394;2022-08-11T18:04:12;6.95;;;2.17;;
55706;SDS011;41608;45.384;20.394;2022-08-11T18:06:40;7.35;;;2.58;;
55706;SDS011;41608;45.384;20.394;2022-08-11T18:09:07;7.90;;;2.78;;
55706;SDS011;41608;45.384;20.394;2022-08-11T18:11:52;5.45;;;2.53;;
55706;SDS011;41608;45.384;20.394;2022-08-11T18:14:39;6.65;;;2.67;;
55706;SDS011;41608;45.384;20.394;2022-08-11T18:17:25;10.35;;;4.07;;
55706;SDS011;41608;45.384;20.394;2022-08-11T18:20:10;3.72;;;2.03;;
55706;SDS011;41608;45.384;20.394;2022-08-11T18:22:54;2.75;;;1.30;;
55706;SDS011;41608;45.384;20.394;2022-08-11T18:25:41;3.83;;;1.60;;
55706;SDS011;41608;45.384;20.394;2022-08-11T18:28:28;4.10;;;1.17;;
55706;SDS011;41608;45.384;20.394;2022-08-11T18:31:14;4.47;;;0.95;;
55706;SDS011;41608;45.384;20.394;2022-08-11T18:34:01;4.45;;;1.30;;
55706;SDS011;41608;45.384;20.394;2022-08-11T18:36:50;2.67;;;1.20;;
55706;SDS011;41608;45.384;20.394;2022-08-11T18:39:36;2.17;;;1.05;;
55706;SDS011;41608;45.384;20.394;2022-08-11T18:42:25;4.82;;;1.50;;
55706;SDS011;41608;45.384;20.394;2022-08-11T18:45:12;4.55;;;1.77;;
55706;SDS011;41608;45.384;20.394;2022-08-11T18:48:03;7.95;;;2.22;;
55706;SDS011;41608;45.384;20.394;2022-08-11T18:50:49;8.30;;;3.10;;
55706;SDS011;41608;45.384;20.394;2022-08-11T18:53:36;7.60;;;3.80;;
55706;SDS011;41608;45.384;20.394;2022-08-11T18:59:07;7.50;;;3.83;;
55706;SDS011;41608;45.384;20.394;2022-08-11T19:01:53;12.02;;;3.83;;